sensor_id;sensor_type;location;lat;lon;timestamp;temperature;humidity
59999;DHT22;45859;51.378;6.736;2023-06-24T00:01:28;17.30;99.90
59999;DHT22;45859;51.378;6.736;2023-06-24T00:03:54;17.30;99.90
59999;DHT22;45859;51.378;6.736;2023-06-24T00:06:20;17.30;99.90
59999;DHT22;45859;51.378;6.736;2023-06-24T00:08:48;17.30;99.90
59999;DHT22;45859;51.378;6.736;2023-06-24T00:11:15;17.20;99.90
59999;DHT22;45859;51.378;6.736;2023-06-24T00:13:41;17.20;99.90
59999;DHT22;45859;51.378;6.736;2023-06-24T00:16:07;17.10;99.90
59999;DHT22;45859;51.378;6.736;2023-06-24T00:18:34;17.10;99.90
59999;DHT22;45859;51.378;6.736;2023-06-24T00:21:00;17.10;99.90
59999;DHT22;45859;51.378;6.736;2023-06-24T00:23:31;17.00;99.90
59999;DHT22;45859;51.378;6.736;2023-06-24T00:26:00;17.00;99.90
59999;DHT22;45859;51.378;6.736;2023-06-24T00:28:26;17.00;99.90
59999;DHT22;45859;51.378;6.736;2023-06-24T00:30:52;17.00;99.90
59999;DHT22;45859;51.378;6.736;2023-06-24T00:33:18;16.90;99.90
59999;DHT22;45859;51.378;6.736;2023-06-24T00:35:45;16.90;99.90
59999;DHT22;45859;51.378;6.736;2023-06-24T00:38:11;16.90;99.90
59999;DHT22;45859;51.378;6.736;2023-06-24T00:40:38;16.90;99.90
59999;DHT22;45859;51.378;6.736;2023-06-24T00:43:05;16.80;99.90
59999;DHT22;45859;51.378;6.736;2023-06-24T00:45:31;16.80;99.90
59999;DHT22;45859;51.378;6.736;2023-06-24T00:48:00;16.80;99.90
59999;DHT22;45859;51.378;6.736;2023-06-24T00:50:28;16.80;99.90
59999;DHT22;45859;51.378;6.736;2023-06-24T00:52:53;16.10;99.90
59999;DHT22;45859;51.378;6.736;2023-06-24T00:55:19;16.80;99.90
59999;DHT22;45859;51.378;6.736;2023-06-24T00:57:48;16.80;99.90
59999;DHT22;45859;51.378;6.736;2023-06-24T01:00:21;16.80;99.90
59999;DHT22;45859;51.378;6.736;2023-06-24T01:02:48;16.80;99.90
59999;DHT22;45859;51.378;6.736;2023-06-24T01:05:15;16.80;99.90
59999;DHT22;45859;51.378;6.736;2023-06-24T01:07:42;16.80;99.90
59999;DHT22;45859;51.378;6.736;2023-06-24T01:10:09;16.80;99.90
59999;DHT22;45859;51.378;6.736;2023-06-24T01:12:39;16.80;99.90
59999;DHT22;45859;51.378;6.736;2023-06-24T01:15:07;16.70;99.90
59999;DHT22;45859;51.378;6.736;2023-06-24T01:20:29;16.60;99.90
59999;DHT22;45859;51.378;6.736;2023-06-24T01:37:29;16.60;99.90
59999;DHT22;45859;51.378;6.736;2023-06-24T01:42:45;16.60;99.90
59999;DHT22;45859;51.378;6.736;2023-06-24T01:45:42;16.60;99.90
59999;DHT22;45859;51.378;6.736;2023-06-24T01:48:13;16.70;99.90
59999;DHT22;45859;51.378;6.736;2023-06-24T01:50:44;16.60;99.90
59999;DHT22;45859;51.378;6.736;2023-06-24T01:53:11;16.70;99.90
59999;DHT22;45859;51.378;6.736;2023-06-24T01:55:41;16.70;99.90
59999;DHT22;45859;51.378;6.736;2023-06-24T01:58:09;16.70;99.90
59999;DHT22;45859;51.378;6.736;2023-06-24T02:00:35;16.70;99.90
59999;DHT22;45859;51.378;6.736;2023-06-24T02:03:04;16.70;99.90
59999;DHT22;45859;51.378;6.736;2023-06-24T02:05:31;16.60;99.90
59999;DHT22;45859;51.378;6.736;2023-06-24T02:07:58;16.60;99.90
59999;DHT22;45859;51.378;6.736;2023-06-24T02:10:24;16.50;99.90
59999;DHT22;45859;51.378;6.736;2023-06-24T02:12:52;16.50;99.90
59999;DHT22;45859;51.378;6.736;2023-06-24T02:15:19;16.50;99.90
59999;DHT22;45859;51.378;6.736;2023-06-24T02:17:46;16.50;99.90
59999;DHT22;45859;51.378;6.736;2023-06-24T02:20:15;16.50;99.90
59999;DHT22;45859;51.378;6.736;2023-06-24T02:22:42;16.40;99.90
59999;DHT22;45859;51.378;6.736;2023-06-24T02:25:09;16.40;99.90
59999;DHT22;45859;51.378;6.736;2023-06-24T02:27:36;16.50;99.90
59999;DHT22;45859;51.378;6.736;2023-06-24T02:30:04;16.40;99.90
59999;DHT22;45859;51.378;6.736;2023-06-24T02:32:30;16.50;99.90
59999;DHT22;45859;51.378;6.736;2023-06-24T02:34:57;16.40;99.90
59999;DHT22;45859;51.378;6.736;2023-06-24T02:37:23;16.40;99.90
59999;DHT22;45859;51.378;6.736;2023-06-24T02:39:49;16.50;99.90
59999;DHT22;45859;51.378;6.736;2023-06-24T02:42:15;16.40;99.90
59999;DHT22;45859;51.378;6.736;2023-06-24T02:44:41;16.40;99.90
59999;DHT22;45859;51.378;6.736;2023-06-24T02:47:09;16.30;99.90
59999;DHT22;45859;51.378;6.736;2023-06-24T02:49:37;16.20;99.90
59999;DHT22;45859;51.378;6.736;2023-06-24T02:52:04;16.20;99.90
59999;DHT22;45859;51.378;6.736;2023-06-24T02:54:31;16.20;99.90
59999;DHT22;45859;51.378;6.736;2023-06-24T02:56:58;16.20;99.90
59999;DHT22;45859;51.378;6.736;2023-06-24T02:59:24;16.10;99.90
59999;DHT22;45859;51.378;6.736;2023-06-24T03:01:51;16.00;99.90
59999;DHT22;45859;51.378;6.736;2023-06-24T03:04:17;16.00;99.90
59999;DHT22;45859;51.378;6.736;2023-06-24T03:06:44;15.90;99.90
59999;DHT22;45859;51.378;6.736;2023-06-24T03:09:10;15.90;99.90
59999;DHT22;45859;51.378;6.736;2023-06-24T03:11:43;16.00;99.90
59999;DHT22;45859;51.378;6.736;2023-06-24T03:14:09;15.90;99.90
59999;DHT22;45859;51.378;6.736;2023-06-24T03:16:35;15.90;99.90
59999;DHT22;45859;51.378;6.736;2023-06-24T03:19:01;15.90;99.90
59999;DHT22;45859;51.378;6.736;2023-06-24T03:21:27;15.90;99.90
59999;DHT22;45859;51.378;6.736;2023-06-24T03:23:56;16.00;99.90
59999;DHT22;45859;51.378;6.736;2023-06-24T03:26:37;16.00;99.90
59999;DHT22;45859;51.378;6.736;2023-06-24T03:29:03;16.00;99.90
59999;DHT22;45859;51.378;6.736;2023-06-24T03:31:29;16.00;99.90
59999;DHT22;45859;51.378;6.736;2023-06-24T03:33:55;16.00;99.90
59999;DHT22;45859;51.378;6.736;2023-06-24T03:36:21;16.00;99.90
59999;DHT22;45859;51.378;6.736;2023-06-24T03:38:46;16.00;99.90
59999;DHT22;45859;51.378;6.736;2023-06-24T03:41:12;16.00;99.90
59999;DHT22;45859;51.378;6.736;2023-06-24T03:43:39;16.10;99.90
59999;DHT22;45859;51.378;6.736;2023-06-24T03:46:04;16.10;99.90
59999;DHT22;45859;51.378;6.736;2023-06-24T03:48:30;16.10;99.90
59999;DHT22;45859;51.378;6.736;2023-06-24T03:50:56;16.10;99.90
59999;DHT22;45859;51.378;6.736;2023-06-24T03:53:21;16.20;99.90
59999;DHT22;45859;51.378;6.736;2023-06-24T03:55:47;16.20;99.90
59999;DHT22;45859;51.378;6.736;2023-06-24T03:58:13;16.20;99.90
59999;DHT22;45859;51.378;6.736;2023-06-24T04:00:39;16.30;99.90
59999;DHT22;45859;51.378;6.736;2023-06-24T04:03:06;16.30;99.90
59999;DHT22;45859;51.378;6.736;2023-06-24T04:05:33;16.40;99.90
59999;DHT22;45859;51.378;6.736;2023-06-24T04:07:59;16.50;99.90
59999;DHT22;45859;51.378;6.736;2023-06-24T04:10:25;16.60;99.90
59999;DHT22;45859;51.378;6.736;2023-06-24T04:12:50;16.70;99.90
59999;DHT22;45859;51.378;6.736;2023-06-24T04:15:16;16.80;99.90
59999;DHT22;45859;51.378;6.736;2023-06-24T04:17:42;16.90;99.90
59999;DHT22;45859;51.378;6.736;2023-06-24T04:20:08;17.00;99.90
59999;DHT22;45859;51.378;6.736;2023-06-24T04:22:35;17.10;99.90
59999;DHT22;45859;51.378;6.736;2023-06-24T04:25:01;17.10;99.90
59999;DHT22;45859;51.378;6.736;2023-06-24T04:27:27;17.10;99.90
59999;DHT22;45859;51.378;6.736;2023-06-24T04:29:52;17.20;99.90
59999;DHT22;45859;51.378;6.736;2023-06-24T04:32:18;17.40;99.90
59999;DHT22;45859;51.378;6.736;2023-06-24T04:34:43;17.30;99.90
59999;DHT22;45859;51.378;6.736;2023-06-24T04:37:09;17.30;99.90
59999;DHT22;45859;51.378;6.736;2023-06-24T04:39:35;17.40;99.90
59999;DHT22;45859;51.378;6.736;2023-06-24T04:42:00;17.50;99.90
59999;DHT22;45859;51.378;6.736;2023-06-24T04:44:26;17.50;99.90
59999;DHT22;45859;51.378;6.736;2023-06-24T04:46:52;17.50;99.90
59999;DHT22;45859;51.378;6.736;2023-06-24T04:49:18;17.50;99.90
59999;DHT22;45859;51.378;6.736;2023-06-24T04:51:43;17.40;99.90
59999;DHT22;45859;51.378;6.736;2023-06-24T04:54:09;17.50;99.90
59999;DHT22;45859;51.378;6.736;2023-06-24T04:56:38;17.50;99.90
59999;DHT22;45859;51.378;6.736;2023-06-24T04:59:03;17.60;99.90
59999;DHT22;45859;51.378;6.736;2023-06-24T05:01:29;17.70;99.90
59999;DHT22;45859;51.378;6.736;2023-06-24T05:03:54;17.80;99.90
59999;DHT22;45859;51.378;6.736;2023-06-24T05:06:20;17.80;99.90
59999;DHT22;45859;51.378;6.736;2023-06-24T05:08:45;17.90;99.90
59999;DHT22;45859;51.378;6.736;2023-06-24T05:11:11;18.00;99.90
59999;DHT22;45859;51.378;6.736;2023-06-24T05:13:37;18.20;99.90
59999;DHT22;45859;51.378;6.736;2023-06-24T05:16:03;18.20;99.90
59999;DHT22;45859;51.378;6.736;2023-06-24T05:18:28;18.30;99.90
59999;DHT22;45859;51.378;6.736;2023-06-24T05:20:54;18.40;99.90
59999;DHT22;45859;51.378;6.736;2023-06-24T05:23:20;18.60;99.90
59999;DHT22;45859;51.378;6.736;2023-06-24T05:25:45;18.70;99.90
59999;DHT22;45859;51.378;6.736;2023-06-24T05:28:11;18.70;99.90
59999;DHT22;45859;51.378;6.736;2023-06-24T05:30:36;18.80;99.90
59999;DHT22;45859;51.378;6.736;2023-06-24T05:33:02;18.90;99.90
59999;DHT22;45859;51.378;6.736;2023-06-24T05:35:28;19.10;99.90
59999;DHT22;45859;51.378;6.736;2023-06-24T05:37:53;19.20;99.90
59999;DHT22;45859;51.378;6.736;2023-06-24T05:40:19;19.20;99.90
59999;DHT22;45859;51.378;6.736;2023-06-24T05:42:44;19.20;99.90
59999;DHT22;45859;51.378;6.736;2023-06-24T05:45:10;19.20;99.90
59999;DHT22;45859;51.378;6.736;2023-06-24T05:47:37;19.30;99.90
59999;DHT22;45859;51.378;6.736;2023-06-24T05:50:04;19.40;99.90
59999;DHT22;45859;51.378;6.736;2023-06-24T05:52:29;19.30;99.90
59999;DHT22;45859;51.378;6.736;2023-06-24T05:54:55;19.40;99.90
59999;DHT22;45859;51.378;6.736;2023-06-24T05:57:21;19.60;99.90
59999;DHT22;45859;51.378;6.736;2023-06-24T05:59:46;19.60;99.90
59999;DHT22;45859;51.378;6.736;2023-06-24T06:02:12;19.70;99.90
59999;DHT22;45859;51.378;6.736;2023-06-24T06:04:39;19.70;99.90
59999;DHT22;45859;51.378;6.736;2023-06-24T06:07:04;19.60;99.90
59999;DHT22;45859;51.378;6.736;2023-06-24T06:09:30;19.70;99.90
59999;DHT22;45859;51.378;6.736;2023-06-24T06:11:56;19.80;99.90
59999;DHT22;45859;51.378;6.736;2023-06-24T06:14:21;19.70;99.90
59999;DHT22;45859;51.378;6.736;2023-06-24T06:16:47;19.80;99.90
59999;DHT22;45859;51.378;6.736;2023-06-24T06:19:12;20.50;99.90
59999;DHT22;45859;51.378;6.736;2023-06-24T06:21:38;21.60;99.90
59999;DHT22;45859;51.378;6.736;2023-06-24T06:24:04;22.20;99.90
59999;DHT22;45859;51.378;6.736;2023-06-24T06:26:30;22.20;99.90
59999;DHT22;45859;51.378;6.736;2023-06-24T06:28:55;22.50;99.90
59999;DHT22;45859;51.378;6.736;2023-06-24T06:31:21;22.30;99.90
59999;DHT22;45859;51.378;6.736;2023-06-24T06:33:47;22.20;99.90
59999;DHT22;45859;51.378;6.736;2023-06-24T06:36:13;22.10;99.90
59999;DHT22;45859;51.378;6.736;2023-06-24T06:38:40;22.30;99.90
59999;DHT22;45859;51.378;6.736;2023-06-24T06:41:05;22.20;99.90
59999;DHT22;45859;51.378;6.736;2023-06-24T06:43:32;22.00;99.90
59999;DHT22;45859;51.378;6.736;2023-06-24T06:45:58;21.70;99.90
59999;DHT22;45859;51.378;6.736;2023-06-24T06:48:24;21.50;99.90
59999;DHT22;45859;51.378;6.736;2023-06-24T06:50:50;21.50;99.90
59999;DHT22;45859;51.378;6.736;2023-06-24T06:53:15;21.60;99.90
59999;DHT22;45859;51.378;6.736;2023-06-24T06:55:41;21.70;99.90
59999;DHT22;45859;51.378;6.736;2023-06-24T06:58:08;22.00;99.90
59999;DHT22;45859;51.378;6.736;2023-06-24T07:00:33;23.00;99.90
59999;DHT22;45859;51.378;6.736;2023-06-24T07:02:59;23.70;99.90
59999;DHT22;45859;51.378;6.736;2023-06-24T07:05:25;24.80;99.90
59999;DHT22;45859;51.378;6.736;2023-06-24T07:07:50;25.60;99.90
59999;DHT22;45859;51.378;6.736;2023-06-24T07:10:16;26.40;99.90
59999;DHT22;45859;51.378;6.736;2023-06-24T07:12:45;26.90;99.90
59999;DHT22;45859;51.378;6.736;2023-06-24T07:15:10;27.50;99.90
59999;DHT22;45859;51.378;6.736;2023-06-24T07:17:36;28.20;99.90
59999;DHT22;45859;51.378;6.736;2023-06-24T07:20:02;27.40;99.90
59999;DHT22;45859;51.378;6.736;2023-06-24T07:22:27;27.20;99.90
59999;DHT22;45859;51.378;6.736;2023-06-24T07:24:53;26.50;99.90
59999;DHT22;45859;51.378;6.736;2023-06-24T07:27:19;26.40;99.90
59999;DHT22;45859;51.378;6.736;2023-06-24T07:29:44;27.00;99.90
59999;DHT22;45859;51.378;6.736;2023-06-24T07:32:10;27.20;99.90
59999;DHT22;45859;51.378;6.736;2023-06-24T07:34:35;27.80;99.90
59999;DHT22;45859;51.378;6.736;2023-06-24T07:37:01;28.80;99.90
59999;DHT22;45859;51.378;6.736;2023-06-24T07:39:27;29.90;99.90
59999;DHT22;45859;51.378;6.736;2023-06-24T07:41:52;30.70;99.90
59999;DHT22;45859;51.378;6.736;2023-06-24T07:44:18;31.80;99.90
59999;DHT22;45859;51.378;6.736;2023-06-24T07:46:44;32.40;99.90
59999;DHT22;45859;51.378;6.736;2023-06-24T07:49:10;32.80;99.90
59999;DHT22;45859;51.378;6.736;2023-06-24T07:51:36;33.50;99.90
59999;DHT22;45859;51.378;6.736;2023-06-24T07:54:01;33.50;99.90
59999;DHT22;45859;51.378;6.736;2023-06-24T07:56:27;33.80;99.90
59999;DHT22;45859;51.378;6.736;2023-06-24T07:58:53;33.70;99.90
59999;DHT22;45859;51.378;6.736;2023-06-24T08:01:18;33.80;99.90
59999;DHT22;45859;51.378;6.736;2023-06-24T08:03:44;33.90;99.90
59999;DHT22;45859;51.378;6.736;2023-06-24T08:06:09;33.30;99.90
59999;DHT22;45859;51.378;6.736;2023-06-24T08:08:35;33.50;99.90
59999;DHT22;45859;51.378;6.736;2023-06-24T08:11:02;34.10;99.90
59999;DHT22;45859;51.378;6.736;2023-06-24T08:13:28;34.30;99.90
59999;DHT22;45859;51.378;6.736;2023-06-24T08:15:53;34.20;99.90
59999;DHT22;45859;51.378;6.736;2023-06-24T08:18:19;34.70;99.90
59999;DHT22;45859;51.378;6.736;2023-06-24T08:20:44;34.10;99.90
59999;DHT22;45859;51.378;6.736;2023-06-24T08:23:10;34.10;99.90
59999;DHT22;45859;51.378;6.736;2023-06-24T08:25:36;34.50;99.90
59999;DHT22;45859;51.378;6.736;2023-06-24T08:28:01;34.50;99.90
59999;DHT22;45859;51.378;6.736;2023-06-24T08:30:27;34.20;99.90
59999;DHT22;45859;51.378;6.736;2023-06-24T08:32:53;34.80;99.90
59999;DHT22;45859;51.378;6.736;2023-06-24T08:35:18;34.80;99.90
59999;DHT22;45859;51.378;6.736;2023-06-24T08:37:44;35.10;99.90
59999;DHT22;45859;51.378;6.736;2023-06-24T08:40:10;34.90;99.90
59999;DHT22;45859;51.378;6.736;2023-06-24T08:42:35;35.40;99.90
59999;DHT22;45859;51.378;6.736;2023-06-24T08:45:01;35.20;99.90
59999;DHT22;45859;51.378;6.736;2023-06-24T08:47:28;35.50;99.90
59999;DHT22;45859;51.378;6.736;2023-06-24T08:50:07;35.70;99.90
59999;DHT22;45859;51.378;6.736;2023-06-24T08:52:36;35.50;99.90
59999;DHT22;45859;51.378;6.736;2023-06-24T08:55:03;35.20;99.90
59999;DHT22;45859;51.378;6.736;2023-06-24T08:57:29;35.30;99.90
59999;DHT22;45859;51.378;6.736;2023-06-24T08:59:55;35.30;99.90
59999;DHT22;45859;51.378;6.736;2023-06-24T09:02:21;35.10;99.90
59999;DHT22;45859;51.378;6.736;2023-06-24T09:04:46;35.00;99.90
59999;DHT22;45859;51.378;6.736;2023-06-24T09:07:12;35.70;99.90
59999;DHT22;45859;51.378;6.736;2023-06-24T09:09:43;36.00;99.90
59999;DHT22;45859;51.378;6.736;2023-06-24T09:12:11;36.20;99.90
59999;DHT22;45859;51.378;6.736;2023-06-24T09:14:37;36.20;99.90
59999;DHT22;45859;51.378;6.736;2023-06-24T09:17:03;35.80;99.90
59999;DHT22;45859;51.378;6.736;2023-06-24T09:19:29;35.00;99.90
59999;DHT22;45859;51.378;6.736;2023-06-24T09:21:56;34.80;99.90
59999;DHT22;45859;51.378;6.736;2023-06-24T09:24:33;34.80;99.90
59999;DHT22;45859;51.378;6.736;2023-06-24T09:27:00;34.90;99.90
59999;DHT22;45859;51.378;6.736;2023-06-24T09:29:32;35.20;99.90
59999;DHT22;45859;51.378;6.736;2023-06-24T09:31:58;34.70;99.90
59999;DHT22;45859;51.378;6.736;2023-06-24T09:34:26;35.50;99.90
59999;DHT22;45859;51.378;6.736;2023-06-24T09:36:53;35.60;99.90
59999;DHT22;45859;51.378;6.736;2023-06-24T09:39:19;35.20;99.90
59999;DHT22;45859;51.378;6.736;2023-06-24T09:41:50;35.20;99.90
59999;DHT22;45859;51.378;6.736;2023-06-24T09:44:17;35.50;99.90
59999;DHT22;45859;51.378;6.736;2023-06-24T09:46:45;35.30;99.90
59999;DHT22;45859;51.378;6.736;2023-06-24T09:49:10;35.30;99.90
59999;DHT22;45859;51.378;6.736;2023-06-24T09:51:44;35.50;99.90
59999;DHT22;45859;51.378;6.736;2023-06-24T09:54:11;34.70;99.90
59999;DHT22;45859;51.378;6.736;2023-06-24T09:56:40;35.10;99.90
59999;DHT22;45859;51.378;6.736;2023-06-24T09:59:08;35.10;99.90
59999;DHT22;45859;51.378;6.736;2023-06-24T10:01:38;34.40;99.90
59999;DHT22;45859;51.378;6.736;2023-06-24T10:04:05;33.80;99.90
59999;DHT22;45859;51.378;6.736;2023-06-24T10:06:35;33.80;99.90
59999;DHT22;45859;51.378;6.736;2023-06-24T10:09:01;33.60;99.90
59999;DHT22;45859;51.378;6.736;2023-06-24T10:11:26;32.70;99.90
59999;DHT22;45859;51.378;6.736;2023-06-24T10:13:53;31.80;99.90
59999;DHT22;45859;51.378;6.736;2023-06-24T10:16:19;31.30;99.90
59999;DHT22;45859;51.378;6.736;2023-06-24T10:18:45;30.60;99.90
59999;DHT22;45859;51.378;6.736;2023-06-24T10:21:11;29.90;99.90
59999;DHT22;45859;51.378;6.736;2023-06-24T10:23:53;29.80;99.90
59999;DHT22;45859;51.378;6.736;2023-06-24T10:26:25;29.50;99.90
59999;DHT22;45859;51.378;6.736;2023-06-24T10:34:28;28.70;99.90
59999;DHT22;45859;51.378;6.736;2023-06-24T10:47:28;28.90;99.90
59999;DHT22;45859;51.378;6.736;2023-06-24T10:49:54;29.10;99.90
59999;DHT22;45859;51.378;6.736;2023-06-24T10:52:20;28.90;99.90
59999;DHT22;45859;51.378;6.736;2023-06-24T10:54:50;29.10;99.90
59999;DHT22;45859;51.378;6.736;2023-06-24T10:57:21;29.30;99.90
59999;DHT22;45859;51.378;6.736;2023-06-24T10:59:51;29.30;99.90
59999;DHT22;45859;51.378;6.736;2023-06-24T11:02:18;28.80;99.90
59999;DHT22;45859;51.378;6.736;2023-06-24T11:04:51;28.80;99.90
59999;DHT22;45859;51.378;6.736;2023-06-24T11:07:18;28.70;99.90
59999;DHT22;45859;51.378;6.736;2023-06-24T11:09:54;28.70;99.90
59999;DHT22;45859;51.378;6.736;2023-06-24T11:12:25;28.60;99.90
59999;DHT22;45859;51.378;6.736;2023-06-24T11:14:56;28.70;99.90
59999;DHT22;45859;51.378;6.736;2023-06-24T11:17:22;28.80;99.90
59999;DHT22;45859;51.378;6.736;2023-06-24T11:19:48;29.00;99.90
59999;DHT22;45859;51.378;6.736;2023-06-24T11:22:14;29.20;99.90
59999;DHT22;45859;51.378;6.736;2023-06-24T11:24:40;29.30;99.90
59999;DHT22;45859;51.378;6.736;2023-06-24T11:27:07;29.10;99.90
59999;DHT22;45859;51.378;6.736;2023-06-24T11:29:33;29.10;99.90
59999;DHT22;45859;51.378;6.736;2023-06-24T11:32:01;29.10;99.90
59999;DHT22;45859;51.378;6.736;2023-06-24T11:34:28;29.20;99.90
59999;DHT22;45859;51.378;6.736;2023-06-24T11:36:54;29.40;99.90
59999;DHT22;45859;51.378;6.736;2023-06-24T11:39:27;29.40;99.90
59999;DHT22;45859;51.378;6.736;2023-06-24T11:41:53;29.10;99.90
59999;DHT22;45859;51.378;6.736;2023-06-24T11:44:24;29.20;99.90
59999;DHT22;45859;51.378;6.736;2023-06-24T11:46:49;29.10;99.90
59999;DHT22;45859;51.378;6.736;2023-06-24T11:49:16;29.20;99.90
59999;DHT22;45859;51.378;6.736;2023-06-24T11:51:51;29.20;99.90
59999;DHT22;45859;51.378;6.736;2023-06-24T11:54:20;29.30;99.90
59999;DHT22;45859;51.378;6.736;2023-06-24T11:56:50;29.30;99.90
59999;DHT22;45859;51.378;6.736;2023-06-24T11:59:22;29.30;99.90
59999;DHT22;45859;51.378;6.736;2023-06-24T12:01:58;29.20;99.90
59999;DHT22;45859;51.378;6.736;2023-06-24T12:04:28;29.10;99.90
59999;DHT22;45859;51.378;6.736;2023-06-24T12:06:54;29.00;99.90
59999;DHT22;45859;51.378;6.736;2023-06-24T12:09:20;29.00;99.90
59999;DHT22;45859;51.378;6.736;2023-06-24T12:11:45;29.00;99.90
59999;DHT22;45859;51.378;6.736;2023-06-24T12:14:11;28.90;99.90
59999;DHT22;45859;51.378;6.736;2023-06-24T12:16:38;28.90;99.90
59999;DHT22;45859;51.378;6.736;2023-06-24T12:19:05;28.80;99.90
59999;DHT22;45859;51.378;6.736;2023-06-24T12:21:31;28.70;99.90
59999;DHT22;45859;51.378;6.736;2023-06-24T12:23:57;28.70;99.90
59999;DHT22;45859;51.378;6.736;2023-06-24T12:26:22;28.70;99.90
59999;DHT22;45859;51.378;6.736;2023-06-24T12:28:48;28.40;99.90
59999;DHT22;45859;51.378;6.736;2023-06-24T12:31:13;28.40;99.90
59999;DHT22;45859;51.378;6.736;2023-06-24T12:33:39;28.30;99.90
59999;DHT22;45859;51.378;6.736;2023-06-24T12:36:05;28.40;99.90
59999;DHT22;45859;51.378;6.736;2023-06-24T12:38:30;28.50;99.90
59999;DHT22;45859;51.378;6.736;2023-06-24T12:40:57;28.50;99.90
59999;DHT22;45859;51.378;6.736;2023-06-24T12:43:22;28.40;99.90
59999;DHT22;45859;51.378;6.736;2023-06-24T12:45:48;28.50;99.90
59999;DHT22;45859;51.378;6.736;2023-06-24T12:48:14;28.60;99.90
59999;DHT22;45859;51.378;6.736;2023-06-24T12:50:40;28.60;99.90
59999;DHT22;45859;51.378;6.736;2023-06-24T12:53:05;28.50;99.90
59999;DHT22;45859;51.378;6.736;2023-06-24T12:55:31;28.60;99.90
59999;DHT22;45859;51.378;6.736;2023-06-24T12:57:57;28.50;99.90
59999;DHT22;45859;51.378;6.736;2023-06-24T13:00:24;28.50;99.90
59999;DHT22;45859;51.378;6.736;2023-06-24T13:02:50;28.40;99.90
59999;DHT22;45859;51.378;6.736;2023-06-24T13:05:16;28.40;99.90
59999;DHT22;45859;51.378;6.736;2023-06-24T13:07:42;28.40;99.90
59999;DHT22;45859;51.378;6.736;2023-06-24T13:10:08;28.20;99.90
59999;DHT22;45859;51.378;6.736;2023-06-24T13:12:35;28.20;99.90
59999;DHT22;45859;51.378;6.736;2023-06-24T13:15:01;28.00;99.90
59999;DHT22;45859;51.378;6.736;2023-06-24T13:17:28;28.10;99.90
59999;DHT22;45859;51.378;6.736;2023-06-24T13:19:54;28.10;99.90
59999;DHT22;45859;51.378;6.736;2023-06-24T13:22:20;28.20;99.90
59999;DHT22;45859;51.378;6.736;2023-06-24T13:24:45;28.10;99.90
59999;DHT22;45859;51.378;6.736;2023-06-24T13:27:11;28.00;99.90
59999;DHT22;45859;51.378;6.736;2023-06-24T13:29:37;27.90;99.90
59999;DHT22;45859;51.378;6.736;2023-06-24T13:32:03;27.80;99.90
59999;DHT22;45859;51.378;6.736;2023-06-24T13:34:28;27.80;99.90
59999;DHT22;45859;51.378;6.736;2023-06-24T13:36:54;27.80;99.90
59999;DHT22;45859;51.378;6.736;2023-06-24T13:39:20;27.80;99.90
59999;DHT22;45859;51.378;6.736;2023-06-24T13:41:49;27.80;99.90
59999;DHT22;45859;51.378;6.736;2023-06-24T13:44:15;27.80;99.90
59999;DHT22;45859;51.378;6.736;2023-06-24T13:46:41;27.90;99.90
59999;DHT22;45859;51.378;6.736;2023-06-24T13:49:06;27.90;99.90
59999;DHT22;45859;51.378;6.736;2023-06-24T13:51:32;27.80;99.90
59999;DHT22;45859;51.378;6.736;2023-06-24T13:53:58;27.80;99.90
59999;DHT22;45859;51.378;6.736;2023-06-24T13:56:25;27.80;99.90
59999;DHT22;45859;51.378;6.736;2023-06-24T13:58:51;27.80;99.90
59999;DHT22;45859;51.378;6.736;2023-06-24T14:01:17;27.60;99.90
59999;DHT22;45859;51.378;6.736;2023-06-24T14:03:43;27.50;99.90
59999;DHT22;45859;51.378;6.736;2023-06-24T14:06:09;27.30;99.90
59999;DHT22;45859;51.378;6.736;2023-06-24T14:08:35;27.30;99.90
59999;DHT22;45859;51.378;6.736;2023-06-24T14:11:02;27.30;99.90
59999;DHT22;45859;51.378;6.736;2023-06-24T14:13:28;27.20;99.90
59999;DHT22;45859;51.378;6.736;2023-06-24T14:15:55;27.30;99.90
59999;DHT22;45859;51.378;6.736;2023-06-24T14:18:21;27.30;99.90
59999;DHT22;45859;51.378;6.736;2023-06-24T14:20:47;27.40;99.90
59999;DHT22;45859;51.378;6.736;2023-06-24T14:23:12;27.40;99.90
59999;DHT22;45859;51.378;6.736;2023-06-24T14:25:38;27.50;99.90
59999;DHT22;45859;51.378;6.736;2023-06-24T14:28:05;28.10;99.90
59999;DHT22;45859;51.378;6.736;2023-06-24T14:30:31;27.70;99.90
59999;DHT22;45859;51.378;6.736;2023-06-24T14:32:57;27.80;99.90
59999;DHT22;45859;51.378;6.736;2023-06-24T14:35:22;27.70;99.90
59999;DHT22;45859;51.378;6.736;2023-06-24T14:37:48;27.70;99.90
59999;DHT22;45859;51.378;6.736;2023-06-24T14:40:14;27.70;99.90
59999;DHT22;45859;51.378;6.736;2023-06-24T14:42:39;27.60;99.90
59999;DHT22;45859;51.378;6.736;2023-06-24T14:45:05;27.50;99.90
59999;DHT22;45859;51.378;6.736;2023-06-24T14:47:31;27.40;99.90
59999;DHT22;45859;51.378;6.736;2023-06-24T14:49:57;27.30;99.90
59999;DHT22;45859;51.378;6.736;2023-06-24T14:52:23;27.20;99.90
59999;DHT22;45859;51.378;6.736;2023-06-24T14:54:48;27.20;99.90
59999;DHT22;45859;51.378;6.736;2023-06-24T14:57:14;27.10;99.90
59999;DHT22;45859;51.378;6.736;2023-06-24T14:59:43;27.10;99.90
59999;DHT22;45859;51.378;6.736;2023-06-24T15:02:08;27.00;99.90
59999;DHT22;45859;51.378;6.736;2023-06-24T15:04:35;27.00;99.90
59999;DHT22;45859;51.378;6.736;2023-06-24T15:07:01;26.90;99.90
59999;DHT22;45859;51.378;6.736;2023-06-24T15:09:27;27.00;99.90
59999;DHT22;45859;51.378;6.736;2023-06-24T15:11:53;27.10;99.90
59999;DHT22;45859;51.378;6.736;2023-06-24T15:14:18;27.10;99.90
59999;DHT22;45859;51.378;6.736;2023-06-24T15:16:44;27.20;99.90
59999;DHT22;45859;51.378;6.736;2023-06-24T15:19:10;27.30;99.90
59999;DHT22;45859;51.378;6.736;2023-06-24T15:21:35;27.30;99.90
59999;DHT22;45859;51.378;6.736;2023-06-24T15:24:01;27.20;99.90
59999;DHT22;45859;51.378;6.736;2023-06-24T15:26:27;27.10;99.90
59999;DHT22;45859;51.378;6.736;2023-06-24T15:28:52;27.10;99.90
59999;DHT22;45859;51.378;6.736;2023-06-24T15:31:19;27.20;99.90
59999;DHT22;45859;51.378;6.736;2023-06-24T15:33:47;27.30;99.90
59999;DHT22;45859;51.378;6.736;2023-06-24T15:36:13;27.40;99.90
59999;DHT22;45859;51.378;6.736;2023-06-24T15:38:38;27.10;99.90
59999;DHT22;45859;51.378;6.736;2023-06-24T15:41:05;27.10;99.90
59999;DHT22;45859;51.378;6.736;2023-06-24T15:43:30;27.20;99.90
59999;DHT22;45859;51.378;6.736;2023-06-24T15:45:56;27.20;99.90
59999;DHT22;45859;51.378;6.736;2023-06-24T15:48:22;27.30;99.90
59999;DHT22;45859;51.378;6.736;2023-06-24T15:50:47;27.30;99.90
59999;DHT22;45859;51.378;6.736;2023-06-24T15:53:13;27.30;99.90
59999;DHT22;45859;51.378;6.736;2023-06-24T15:55:40;27.40;99.90
59999;DHT22;45859;51.378;6.736;2023-06-24T15:58:05;27.40;99.90
59999;DHT22;45859;51.378;6.736;2023-06-24T16:00:31;27.40;99.90
59999;DHT22;45859;51.378;6.736;2023-06-24T16:02:56;27.30;99.90